Archival Weather

Chicago O'Hare International

Chicago, Illinois (KORD)

Report from: Saturday, March 18, 2023 7:23 AM CDT
Current time: Saturday, March 2, 2024 3:16 AM CST

Current weather – Weather history – Daily summaries
Weather forecast

Temperature-11.1°C (12.0°F)
Wind chill-20.6°C (-5.1°F)
Dew point-16.7°C (1.9°F)
Winds 15 kts (7.7 m/s, 17.3 mph) West (270°)
Wind gusts 21 kts (10.8 m/s, 24.2 mph)
Peak wind 26 kts (13.4 m/s, 29.9 mph) West (280°) at 12:04
Visibility10 mi. (16.1 km)
Clouds Few clouds 2,100 ft. (640 m)
Ceiling: Broken clouds 2,500 ft. (762 m)
Altimeter29.96 in.Hg (1015 mB)
Relative humidity63 %
Density altitude-3,286 ft. (-1,002 m)
Remarks Automated weather observing station with precipitation discriminator
Flight conditions Marginal Visual Meteorological Conditions
Raw dataKORD 181223Z 27015G21KT 10SM FEW021 BKN025 M11/M17 A2996 RMK AO2 PK WND 28026/1204 T11111167
An error has occurred. This application may no longer respond until reloaded. Reload 🗙